sensor_id;sensor_type;location;lat;lon;timestamp;P1;durP1;ratioP1;P2;durP2;ratioP2
12770;SDS011;6449;47.666;9.160;2023-02-05T00:03:44;9.50;;;5.40;;
12770;SDS011;6449;47.666;9.160;2023-02-05T00:08:39;8.90;;;5.43;;
12770;SDS011;6449;47.666;9.160;2023-02-05T00:13:33;9.27;;;5.53;;
12770;SDS011;6449;47.666;9.160;2023-02-05T00:18:27;6.67;;;4.87;;
12770;SDS011;6449;47.666;9.160;2023-02-05T00:23:22;8.10;;;5.10;;
12770;SDS011;6449;47.666;9.160;2023-02-05T00:28:16;7.63;;;5.43;;
12770;SDS011;6449;47.666;9.160;2023-02-05T00:33:10;9.87;;;4.93;;
12770;SDS011;6449;47.666;9.160;2023-02-05T00:38:03;6.73;;;5.30;;
12770;SDS011;6449;47.666;9.160;2023-02-05T00:42:56;8.17;;;5.30;;
12770;SDS011;6449;47.666;9.160;2023-02-05T00:47:51;8.47;;;5.20;;
12770;SDS011;6449;47.666;9.160;2023-02-05T00:52:45;7.43;;;5.40;;
12770;SDS011;6449;47.666;9.160;2023-02-05T00:57:38;9.77;;;5.50;;
12770;SDS011;6449;47.666;9.160;2023-02-05T01:02:32;6.80;;;5.00;;
12770;SDS011;6449;47.666;9.160;2023-02-05T01:07:26;8.93;;;5.50;;
12770;SDS011;6449;47.666;9.160;2023-02-05T01:12:20;8.57;;;5.37;;
12770;SDS011;6449;47.666;9.160;2023-02-05T01:17:13;8.47;;;5.13;;
12770;SDS011;6449;47.666;9.160;2023-02-05T01:22:07;8.40;;;5.23;;
12770;SDS011;6449;47.666;9.160;2023-02-05T01:32:07;8.27;;;5.67;;
12770;SDS011;6449;47.666;9.160;2023-02-05T01:37:00;8.10;;;5.23;;
12770;SDS011;6449;47.666;9.160;2023-02-05T01:41:54;9.47;;;5.43;;
12770;SDS011;6449;47.666;9.160;2023-02-05T01:46:47;8.70;;;5.43;;
12770;SDS011;6449;47.666;9.160;2023-02-05T01:51:44;10.57;;;5.60;;
12770;SDS011;6449;47.666;9.160;2023-02-05T01:56:41;8.97;;;4.90;;
12770;SDS011;6449;47.666;9.160;2023-02-05T02:01:43;9.97;;;5.27;;
12770;SDS011;6449;47.666;9.160;2023-02-05T02:06:37;9.50;;;5.17;;
12770;SDS011;6449;47.666;9.160;2023-02-05T02:11:32;7.63;;;4.87;;
12770;SDS011;6449;47.666;9.160;2023-02-05T02:16:32;8.33;;;5.57;;
12770;SDS011;6449;47.666;9.160;2023-02-05T02:32:37;9.07;;;5.30;;
12770;SDS011;6449;47.666;9.160;2023-02-05T02:37:39;10.70;;;5.97;;
12770;SDS011;6449;47.666;9.160;2023-02-05T02:42:45;8.63;;;5.30;;
12770;SDS011;6449;47.666;9.160;2023-02-05T02:47:47;10.77;;;5.40;;
12770;SDS011;6449;47.666;9.160;2023-02-05T02:52:47;8.90;;;5.73;;
12770;SDS011;6449;47.666;9.160;2023-02-05T02:57:47;12.03;;;5.60;;
12770;SDS011;6449;47.666;9.160;2023-02-05T03:02:46;11.67;;;5.77;;
12770;SDS011;6449;47.666;9.160;2023-02-05T03:07:47;12.60;;;5.80;;
12770;SDS011;6449;47.666;9.160;2023-02-05T03:12:45;10.50;;;5.97;;
12770;SDS011;6449;47.666;9.160;2023-02-05T03:17:40;9.07;;;5.83;;
12770;SDS011;6449;47.666;9.160;2023-02-05T03:22:35;10.60;;;5.10;;
12770;SDS011;6449;47.666;9.160;2023-02-05T03:27:28;7.63;;;5.00;;
12770;SDS011;6449;47.666;9.160;2023-02-05T03:32:26;7.93;;;5.30;;
12770;SDS011;6449;47.666;9.160;2023-02-05T03:37:38;8.30;;;5.70;;
12770;SDS011;6449;47.666;9.160;2023-02-05T03:42:44;9.10;;;5.33;;
12770;SDS011;6449;47.666;9.160;2023-02-05T03:47:57;13.90;;;6.00;;
12770;SDS011;6449;47.666;9.160;2023-02-05T03:53:07;9.50;;;5.80;;
12770;SDS011;6449;47.666;9.160;2023-02-05T03:58:12;6.97;;;5.20;;
12770;SDS011;6449;47.666;9.160;2023-02-05T04:03:14;9.47;;;5.70;;
12770;SDS011;6449;47.666;9.160;2023-02-05T04:08:08;11.17;;;6.57;;
12770;SDS011;6449;47.666;9.160;2023-02-05T04:13:01;9.20;;;6.00;;
12770;SDS011;6449;47.666;9.160;2023-02-05T04:17:55;11.10;;;6.00;;
12770;SDS011;6449;47.666;9.160;2023-02-05T04:22:50;24.87;;;6.80;;
12770;SDS011;6449;47.666;9.160;2023-02-05T04:27:43;13.07;;;6.57;;
12770;SDS011;6449;47.666;9.160;2023-02-05T04:32:37;20.93;;;7.30;;
12770;SDS011;6449;47.666;9.160;2023-02-05T04:37:30;41.30;;;8.40;;
12770;SDS011;6449;47.666;9.160;2023-02-05T04:42:25;29.60;;;9.70;;
12770;SDS011;6449;47.666;9.160;2023-02-05T04:47:19;89.93;;;10.47;;
12770;SDS011;6449;47.666;9.160;2023-02-05T04:52:12;89.47;;;10.77;;
12770;SDS011;6449;47.666;9.160;2023-02-05T04:57:06;16.43;;;7.67;;
12770;SDS011;6449;47.666;9.160;2023-02-05T05:02:01;105.43;;;10.77;;
12770;SDS011;6449;47.666;9.160;2023-02-05T05:06:54;28.40;;;7.47;;
12770;SDS011;6449;47.666;9.160;2023-02-05T05:11:48;60.67;;;7.93;;
12770;SDS011;6449;47.666;9.160;2023-02-05T05:16:42;45.70;;;7.93;;
12770;SDS011;6449;47.666;9.160;2023-02-05T05:21:37;16.40;;;7.10;;
12770;SDS011;6449;47.666;9.160;2023-02-05T05:26:31;33.20;;;7.03;;
12770;SDS011;6449;47.666;9.160;2023-02-05T05:31:24;13.13;;;6.17;;
12770;SDS011;6449;47.666;9.160;2023-02-05T05:36:18;19.50;;;6.60;;
12770;SDS011;6449;47.666;9.160;2023-02-05T05:41:15;21.63;;;7.17;;
12770;SDS011;6449;47.666;9.160;2023-02-05T05:46:30;20.90;;;6.77;;
12770;SDS011;6449;47.666;9.160;2023-02-05T05:51:25;8.90;;;6.40;;
12770;SDS011;6449;47.666;9.160;2023-02-05T05:56:22;13.33;;;6.60;;
12770;SDS011;6449;47.666;9.160;2023-02-05T06:01:16;7.50;;;6.67;;
12770;SDS011;6449;47.666;9.160;2023-02-05T06:06:13;8.10;;;6.40;;
12770;SDS011;6449;47.666;9.160;2023-02-05T06:11:06;9.70;;;7.53;;
12770;SDS011;6449;47.666;9.160;2023-02-05T06:16:02;7.87;;;6.50;;
12770;SDS011;6449;47.666;9.160;2023-02-05T06:20:57;8.77;;;6.80;;
12770;SDS011;6449;47.666;9.160;2023-02-05T06:25:51;9.87;;;7.13;;
12770;SDS011;6449;47.666;9.160;2023-02-05T06:30:45;11.00;;;8.50;;
12770;SDS011;6449;47.666;9.160;2023-02-05T06:35:47;18.63;;;10.23;;
12770;SDS011;6449;47.666;9.160;2023-02-05T06:40:40;12.73;;;8.60;;
12770;SDS011;6449;47.666;9.160;2023-02-05T06:45:33;16.03;;;11.13;;
12770;SDS011;6449;47.666;9.160;2023-02-05T06:50:27;14.77;;;11.47;;
12770;SDS011;6449;47.666;9.160;2023-02-05T06:55:22;14.70;;;10.30;;
12770;SDS011;6449;47.666;9.160;2023-02-05T07:00:17;10.50;;;7.93;;
12770;SDS011;6449;47.666;9.160;2023-02-05T07:05:12;18.83;;;10.80;;
12770;SDS011;6449;47.666;9.160;2023-02-05T07:10:07;12.93;;;9.70;;
12770;SDS011;6449;47.666;9.160;2023-02-05T07:15:02;9.83;;;7.30;;
12770;SDS011;6449;47.666;9.160;2023-02-05T07:19:56;9.47;;;7.60;;
12770;SDS011;6449;47.666;9.160;2023-02-05T07:24:50;8.33;;;6.77;;
12770;SDS011;6449;47.666;9.160;2023-02-05T07:29:43;12.83;;;9.50;;
12770;SDS011;6449;47.666;9.160;2023-02-05T07:34:38;14.20;;;9.63;;
12770;SDS011;6449;47.666;9.160;2023-02-05T07:45:04;12.50;;;10.33;;
12770;SDS011;6449;47.666;9.160;2023-02-05T07:50:01;17.40;;;11.30;;
12770;SDS011;6449;47.666;9.160;2023-02-05T07:54:56;14.77;;;10.63;;
12770;SDS011;6449;47.666;9.160;2023-02-05T07:59:49;14.93;;;10.17;;
12770;SDS011;6449;47.666;9.160;2023-02-05T08:04:43;14.40;;;9.33;;
12770;SDS011;6449;47.666;9.160;2023-02-05T08:09:38;13.00;;;8.80;;
12770;SDS011;6449;47.666;9.160;2023-02-05T08:14:31;14.13;;;9.30;;
12770;SDS011;6449;47.666;9.160;2023-02-05T08:19:25;14.50;;;10.20;;
12770;SDS011;6449;47.666;9.160;2023-02-05T08:24:19;12.73;;;9.57;;
12770;SDS011;6449;47.666;9.160;2023-02-05T08:29:20;16.40;;;10.13;;
12770;SDS011;6449;47.666;9.160;2023-02-05T08:34:14;15.40;;;9.57;;
12770;SDS011;6449;47.666;9.160;2023-02-05T08:39:11;14.57;;;10.40;;
12770;SDS011;6449;47.666;9.160;2023-02-05T08:44:04;25.10;;;16.57;;
12770;SDS011;6449;47.666;9.160;2023-02-05T08:48:59;19.70;;;12.27;;
12770;SDS011;6449;47.666;9.160;2023-02-05T08:53:52;24.33;;;19.67;;
12770;SDS011;6449;47.666;9.160;2023-02-05T08:58:46;20.30;;;14.40;;
12770;SDS011;6449;47.666;9.160;2023-02-05T09:03:41;18.93;;;13.87;;
12770;SDS011;6449;47.666;9.160;2023-02-05T09:08:37;19.80;;;13.43;;
12770;SDS011;6449;47.666;9.160;2023-02-05T09:13:31;17.87;;;12.93;;
12770;SDS011;6449;47.666;9.160;2023-02-05T09:18:25;17.90;;;12.97;;
12770;SDS011;6449;47.666;9.160;2023-02-05T09:23:18;18.73;;;13.27;;
12770;SDS011;6449;47.666;9.160;2023-02-05T09:28:14;17.00;;;11.90;;
12770;SDS011;6449;47.666;9.160;2023-02-05T09:33:08;18.60;;;12.70;;
12770;SDS011;6449;47.666;9.160;2023-02-05T09:38:03;18.07;;;13.00;;
12770;SDS011;6449;47.666;9.160;2023-02-05T09:42:59;17.80;;;12.20;;
12770;SDS011;6449;47.666;9.160;2023-02-05T09:48:13;17.03;;;12.87;;
12770;SDS011;6449;47.666;9.160;2023-02-05T09:53:50;20.00;;;13.53;;
12770;SDS011;6449;47.666;9.160;2023-02-05T09:58:49;21.50;;;13.27;;
12770;SDS011;6449;47.666;9.160;2023-02-05T10:03:50;21.97;;;12.50;;
12770;SDS011;6449;47.666;9.160;2023-02-05T10:08:52;18.83;;;12.90;;
12770;SDS011;6449;47.666;9.160;2023-02-05T10:14:04;19.07;;;12.87;;
12770;SDS011;6449;47.666;9.160;2023-02-05T10:34:41;18.67;;;12.80;;
12770;SDS011;6449;47.666;9.160;2023-02-05T10:39:47;18.13;;;13.10;;
12770;SDS011;6449;47.666;9.160;2023-02-05T10:44:41;18.40;;;11.80;;
12770;SDS011;6449;47.666;9.160;2023-02-05T10:49:41;17.63;;;11.40;;
12770;SDS011;6449;47.666;9.160;2023-02-05T10:54:42;18.13;;;11.00;;
12770;SDS011;6449;47.666;9.160;2023-02-05T10:59:40;16.00;;;10.03;;
12770;SDS011;6449;47.666;9.160;2023-02-05T11:04:58;16.67;;;10.27;;
12770;SDS011;6449;47.666;9.160;2023-02-05T11:10:12;15.20;;;10.47;;
12770;SDS011;6449;47.666;9.160;2023-02-05T11:15:16;18.30;;;10.80;;
12770;SDS011;6449;47.666;9.160;2023-02-05T11:41:30;16.63;;;11.53;;
12770;SDS011;6449;47.666;9.160;2023-02-05T11:47:04;18.10;;;12.00;;
12770;SDS011;6449;47.666;9.160;2023-02-05T11:52:22;18.33;;;12.73;;
12770;SDS011;6449;47.666;9.160;2023-02-05T12:03:14;20.00;;;13.43;;
12770;SDS011;6449;47.666;9.160;2023-02-05T12:20:57;19.03;;;13.57;;
12770;SDS011;6449;47.666;9.160;2023-02-05T12:39:52;20.80;;;11.97;;
12770;SDS011;6449;47.666;9.160;2023-02-05T12:52:10;21.47;;;11.77;;
12770;SDS011;6449;47.666;9.160;2023-02-05T13:04:51;13.50;;;8.57;;
12770;SDS011;6449;47.666;9.160;2023-02-05T13:17:47;20.20;;;9.63;;
12770;SDS011;6449;47.666;9.160;2023-02-05T13:29:52;16.17;;;8.93;;
12770;SDS011;6449;47.666;9.160;2023-02-05T13:35:00;15.03;;;9.87;;
12770;SDS011;6449;47.666;9.160;2023-02-05T13:40:40;15.23;;;8.60;;
12770;SDS011;6449;47.666;9.160;2023-02-05T13:46:41;15.77;;;8.90;;
12770;SDS011;6449;47.666;9.160;2023-02-05T13:58:20;16.37;;;9.80;;
12770;SDS011;6449;47.666;9.160;2023-02-05T14:03:33;16.53;;;9.90;;
12770;SDS011;6449;47.666;9.160;2023-02-05T14:09:00;12.67;;;8.57;;
12770;SDS011;6449;47.666;9.160;2023-02-05T14:19:59;15.57;;;8.87;;
12770;SDS011;6449;47.666;9.160;2023-02-05T14:25:01;15.93;;;9.43;;
12770;SDS011;6449;47.666;9.160;2023-02-05T14:36:24;16.60;;;9.23;;
12770;SDS011;6449;47.666;9.160;2023-02-05T14:41:47;16.70;;;9.70;;
12770;SDS011;6449;47.666;9.160;2023-02-05T14:46:53;14.20;;;9.03;;
12770;SDS011;6449;47.666;9.160;2023-02-05T14:51:56;19.30;;;8.80;;
12770;SDS011;6449;47.666;9.160;2023-02-05T14:56:53;17.80;;;8.90;;
12770;SDS011;6449;47.666;9.160;2023-02-05T15:08:13;11.73;;;8.40;;
12770;SDS011;6449;47.666;9.160;2023-02-05T15:20:04;14.33;;;9.10;;
12770;SDS011;6449;47.666;9.160;2023-02-05T15:32:04;10.73;;;7.07;;
12770;SDS011;6449;47.666;9.160;2023-02-05T15:37:13;11.53;;;8.20;;
12770;SDS011;6449;47.666;9.160;2023-02-05T15:42:14;12.70;;;8.10;;
12770;SDS011;6449;47.666;9.160;2023-02-05T15:47:16;10.13;;;7.93;;
12770;SDS011;6449;47.666;9.160;2023-02-05T15:52:14;11.67;;;8.43;;
12770;SDS011;6449;47.666;9.160;2023-02-05T15:57:16;17.23;;;8.40;;
12770;SDS011;6449;47.666;9.160;2023-02-05T16:02:16;11.53;;;8.47;;
12770;SDS011;6449;47.666;9.160;2023-02-05T16:07:15;12.03;;;7.80;;
12770;SDS011;6449;47.666;9.160;2023-02-05T16:12:12;10.17;;;7.50;;
12770;SDS011;6449;47.666;9.160;2023-02-05T16:17:07;9.53;;;7.40;;
12770;SDS011;6449;47.666;9.160;2023-02-05T16:22:14;10.70;;;6.97;;
12770;SDS011;6449;47.666;9.160;2023-02-05T16:27:23;9.47;;;6.53;;
12770;SDS011;6449;47.666;9.160;2023-02-05T16:32:27;9.10;;;6.30;;
12770;SDS011;6449;47.666;9.160;2023-02-05T16:37:27;9.10;;;6.43;;
12770;SDS011;6449;47.666;9.160;2023-02-05T16:42:28;9.83;;;6.83;;
12770;SDS011;6449;47.666;9.160;2023-02-05T16:47:28;10.10;;;7.73;;
12770;SDS011;6449;47.666;9.160;2023-02-05T16:52:30;23.80;;;19.30;;
12770;SDS011;6449;47.666;9.160;2023-02-05T16:57:29;11.93;;;9.03;;
12770;SDS011;6449;47.666;9.160;2023-02-05T17:02:30;9.70;;;8.03;;
12770;SDS011;6449;47.666;9.160;2023-02-05T17:07:27;16.83;;;14.03;;
12770;SDS011;6449;47.666;9.160;2023-02-05T17:17:52;9.57;;;7.27;;
12770;SDS011;6449;47.666;9.160;2023-02-05T17:23:07;10.27;;;7.07;;
12770;SDS011;6449;47.666;9.160;2023-02-05T17:28:03;11.10;;;9.17;;
12770;SDS011;6449;47.666;9.160;2023-02-05T17:33:04;11.40;;;8.73;;
12770;SDS011;6449;47.666;9.160;2023-02-05T17:37:59;10.73;;;8.53;;
12770;SDS011;6449;47.666;9.160;2023-02-05T17:42:54;9.93;;;8.53;;
12770;SDS011;6449;47.666;9.160;2023-02-05T17:47:47;11.60;;;9.77;;
12770;SDS011;6449;47.666;9.160;2023-02-05T17:52:41;12.23;;;7.40;;
12770;SDS011;6449;47.666;9.160;2023-02-05T17:57:35;7.43;;;6.57;;
12770;SDS011;6449;47.666;9.160;2023-02-05T18:02:30;10.10;;;7.47;;
12770;SDS011;6449;47.666;9.160;2023-02-05T18:07:27;9.47;;;7.40;;
12770;SDS011;6449;47.666;9.160;2023-02-05T18:12:25;61.90;;;37.30;;
12770;SDS011;6449;47.666;9.160;2023-02-05T18:17:19;34.60;;;23.13;;
12770;SDS011;6449;47.666;9.160;2023-02-05T18:22:14;13.40;;;9.43;;
12770;SDS011;6449;47.666;9.160;2023-02-05T18:27:08;10.20;;;8.43;;
12770;SDS011;6449;47.666;9.160;2023-02-05T18:32:02;12.50;;;9.43;;
12770;SDS011;6449;47.666;9.160;2023-02-05T18:36:58;13.60;;;9.83;;
12770;SDS011;6449;47.666;9.160;2023-02-05T18:41:53;18.77;;;12.50;;
12770;SDS011;6449;47.666;9.160;2023-02-05T18:46:46;16.33;;;11.07;;
12770;SDS011;6449;47.666;9.160;2023-02-05T18:51:40;17.67;;;12.57;;
12770;SDS011;6449;47.666;9.160;2023-02-05T18:56:34;17.60;;;12.20;;
12770;SDS011;6449;47.666;9.160;2023-02-05T19:01:29;17.13;;;12.07;;
12770;SDS011;6449;47.666;9.160;2023-02-05T19:06:25;14.03;;;10.20;;
12770;SDS011;6449;47.666;9.160;2023-02-05T19:11:19;13.77;;;10.30;;
12770;SDS011;6449;47.666;9.160;2023-02-05T19:16:15;13.90;;;10.50;;
12770;SDS011;6449;47.666;9.160;2023-02-05T19:21:11;16.23;;;11.47;;
12770;SDS011;6449;47.666;9.160;2023-02-05T19:26:07;15.47;;;11.23;;
12770;SDS011;6449;47.666;9.160;2023-02-05T19:31:04;16.80;;;12.23;;
12770;SDS011;6449;47.666;9.160;2023-02-05T19:36:02;18.77;;;12.63;;
12770;SDS011;6449;47.666;9.160;2023-02-05T19:41:01;22.33;;;14.80;;
12770;SDS011;6449;47.666;9.160;2023-02-05T19:46:00;18.97;;;12.77;;
12770;SDS011;6449;47.666;9.160;2023-02-05T19:50:56;16.43;;;12.50;;
12770;SDS011;6449;47.666;9.160;2023-02-05T19:56:01;15.93;;;12.37;;
12770;SDS011;6449;47.666;9.160;2023-02-05T20:00:57;16.73;;;12.30;;
12770;SDS011;6449;47.666;9.160;2023-02-05T20:05:50;16.40;;;11.77;;
12770;SDS011;6449;47.666;9.160;2023-02-05T20:10:44;32.40;;;21.63;;
12770;SDS011;6449;47.666;9.160;2023-02-05T20:15:39;20.47;;;15.03;;
12770;SDS011;6449;47.666;9.160;2023-02-05T20:20:32;21.53;;;15.23;;
12770;SDS011;6449;47.666;9.160;2023-02-05T20:25:26;19.10;;;14.13;;
12770;SDS011;6449;47.666;9.160;2023-02-05T20:30:19;20.07;;;13.77;;
12770;SDS011;6449;47.666;9.160;2023-02-05T20:35:31;18.10;;;12.97;;
12770;SDS011;6449;47.666;9.160;2023-02-05T20:40:27;17.40;;;12.63;;
12770;SDS011;6449;47.666;9.160;2023-02-05T20:45:29;18.37;;;12.97;;
12770;SDS011;6449;47.666;9.160;2023-02-05T20:50:24;20.77;;;13.90;;
12770;SDS011;6449;47.666;9.160;2023-02-05T20:55:19;19.17;;;13.80;;
12770;SDS011;6449;47.666;9.160;2023-02-05T21:00:12;17.70;;;12.63;;
12770;SDS011;6449;47.666;9.160;2023-02-05T21:05:06;15.47;;;12.30;;
12770;SDS011;6449;47.666;9.160;2023-02-05T21:10:00;14.47;;;12.33;;
12770;SDS011;6449;47.666;9.160;2023-02-05T21:14:57;16.97;;;12.17;;
12770;SDS011;6449;47.666;9.160;2023-02-05T21:19:50;17.13;;;13.27;;
12770;SDS011;6449;47.666;9.160;2023-02-05T21:24:44;19.30;;;13.53;;
12770;SDS011;6449;47.666;9.160;2023-02-05T21:29:37;17.30;;;13.27;;
12770;SDS011;6449;47.666;9.160;2023-02-05T21:34:32;16.30;;;13.03;;
12770;SDS011;6449;47.666;9.160;2023-02-05T21:39:26;17.90;;;13.17;;
12770;SDS011;6449;47.666;9.160;2023-02-05T21:44:19;18.00;;;14.17;;
12770;SDS011;6449;47.666;9.160;2023-02-05T21:49:13;17.90;;;14.20;;
12770;SDS011;6449;47.666;9.160;2023-02-05T21:54:08;19.30;;;14.30;;
12770;SDS011;6449;47.666;9.160;2023-02-05T21:59:03;18.23;;;13.23;;
12770;SDS011;6449;47.666;9.160;2023-02-05T22:03:57;15.20;;;11.67;;
12770;SDS011;6449;47.666;9.160;2023-02-05T22:08:53;17.00;;;11.87;;
12770;SDS011;6449;47.666;9.160;2023-02-05T22:13:50;32.67;;;25.30;;
12770;SDS011;6449;47.666;9.160;2023-02-05T22:18:45;20.17;;;16.50;;
12770;SDS011;6449;47.666;9.160;2023-02-05T22:28:34;16.40;;;13.57;;
12770;SDS011;6449;47.666;9.160;2023-02-05T22:33:30;14.50;;;12.03;;
12770;SDS011;6449;47.666;9.160;2023-02-05T22:38:26;16.07;;;12.80;;
12770;SDS011;6449;47.666;9.160;2023-02-05T22:43:22;15.80;;;12.40;;
12770;SDS011;6449;47.666;9.160;2023-02-05T22:48:15;16.93;;;13.97;;
12770;SDS011;6449;47.666;9.160;2023-02-05T22:58:17;9.47;;;8.20;;
12770;SDS011;6449;47.666;9.160;2023-02-05T23:03:10;9.17;;;7.83;;
12770;SDS011;6449;47.666;9.160;2023-02-05T23:08:03;10.80;;;7.90;;
12770;SDS011;6449;47.666;9.160;2023-02-05T23:12:57;7.90;;;7.07;;
12770;SDS011;6449;47.666;9.160;2023-02-05T23:22:58;9.10;;;7.83;;
12770;SDS011;6449;47.666;9.160;2023-02-05T23:43:09;9.67;;;8.00;;
12770;SDS011;6449;47.666;9.160;2023-02-05T23:48:03;8.80;;;7.90;;
12770;SDS011;6449;47.666;9.160;2023-02-05T23:52:56;9.20;;;8.23;;
